sensor_id;sensor_type;location;lat;lon;timestamp;P1;durP1;ratioP1;P2;durP2;ratioP2
35506;SDS011;36461;52.018;21.036;2023-02-27T00:00:56;10.30;;;5.30;;
35506;SDS011;36461;52.018;21.036;2023-02-27T00:03:27;11.70;;;5.50;;
35506;SDS011;36461;52.018;21.036;2023-02-27T00:05:55;10.50;;;5.80;;
35506;SDS011;36461;52.018;21.036;2023-02-27T00:08:23;12.90;;;5.90;;
35506;SDS011;36461;52.018;21.036;2023-02-27T00:10:52;11.90;;;5.50;;
35506;SDS011;36461;52.018;21.036;2023-02-27T00:13:20;9.60;;;5.30;;
35506;SDS011;36461;52.018;21.036;2023-02-27T00:15:48;10.50;;;4.90;;
35506;SDS011;36461;52.018;21.036;2023-02-27T00:18:17;10.20;;;5.40;;
35506;SDS011;36461;52.018;21.036;2023-02-27T00:20:45;8.70;;;4.40;;
35506;SDS011;36461;52.018;21.036;2023-02-27T00:23:15;10.40;;;5.10;;
35506;SDS011;36461;52.018;21.036;2023-02-27T00:25:43;10.30;;;4.10;;
35506;SDS011;36461;52.018;21.036;2023-02-27T00:28:11;10.70;;;4.90;;
35506;SDS011;36461;52.018;21.036;2023-02-27T00:30:39;8.40;;;4.10;;
35506;SDS011;36461;52.018;21.036;2023-02-27T00:33:09;9.60;;;4.10;;
35506;SDS011;36461;52.018;21.036;2023-02-27T00:35:37;10.60;;;5.00;;
35506;SDS011;36461;52.018;21.036;2023-02-27T00:38:05;8.90;;;4.30;;
35506;SDS011;36461;52.018;21.036;2023-02-27T00:40:33;10.20;;;4.70;;
35506;SDS011;36461;52.018;21.036;2023-02-27T00:43:04;8.30;;;4.20;;
35506;SDS011;36461;52.018;21.036;2023-02-27T00:45:32;8.30;;;4.50;;
35506;SDS011;36461;52.018;21.036;2023-02-27T00:48:00;9.40;;;4.00;;
35506;SDS011;36461;52.018;21.036;2023-02-27T00:50:28;9.70;;;4.20;;
35506;SDS011;36461;52.018;21.036;2023-02-27T00:52:57;7.60;;;3.80;;
35506;SDS011;36461;52.018;21.036;2023-02-27T00:55:25;7.10;;;4.30;;
35506;SDS011;36461;52.018;21.036;2023-02-27T00:57:54;8.70;;;4.10;;
35506;SDS011;36461;52.018;21.036;2023-02-27T01:00:22;9.60;;;4.00;;
35506;SDS011;36461;52.018;21.036;2023-02-27T01:02:51;8.50;;;3.90;;
35506;SDS011;36461;52.018;21.036;2023-02-27T01:05:19;8.60;;;4.30;;
35506;SDS011;36461;52.018;21.036;2023-02-27T01:07:48;8.50;;;3.50;;
35506;SDS011;36461;52.018;21.036;2023-02-27T01:10:16;7.70;;;4.00;;
35506;SDS011;36461;52.018;21.036;2023-02-27T01:12:44;8.20;;;3.80;;
35506;SDS011;36461;52.018;21.036;2023-02-27T01:15:12;9.00;;;4.10;;
35506;SDS011;36461;52.018;21.036;2023-02-27T01:17:41;7.40;;;4.00;;
35506;SDS011;36461;52.018;21.036;2023-02-27T01:20:10;8.40;;;4.20;;
35506;SDS011;36461;52.018;21.036;2023-02-27T01:22:39;7.50;;;4.00;;
35506;SDS011;36461;52.018;21.036;2023-02-27T01:25:08;10.00;;;4.40;;
35506;SDS011;36461;52.018;21.036;2023-02-27T01:27:38;7.90;;;4.00;;
35506;SDS011;36461;52.018;21.036;2023-02-27T01:30:07;7.00;;;3.90;;
35506;SDS011;36461;52.018;21.036;2023-02-27T01:32:38;7.40;;;3.90;;
35506;SDS011;36461;52.018;21.036;2023-02-27T01:35:06;6.80;;;3.60;;
35506;SDS011;36461;52.018;21.036;2023-02-27T01:37:35;9.70;;;4.30;;
35506;SDS011;36461;52.018;21.036;2023-02-27T01:40:04;7.90;;;4.20;;
35506;SDS011;36461;52.018;21.036;2023-02-27T01:42:33;8.90;;;4.10;;
35506;SDS011;36461;52.018;21.036;2023-02-27T01:47:50;6.70;;;3.60;;
35506;SDS011;36461;52.018;21.036;2023-02-27T01:50:22;11.10;;;3.90;;
35506;SDS011;36461;52.018;21.036;2023-02-27T01:52:52;6.90;;;4.00;;
35506;SDS011;36461;52.018;21.036;2023-02-27T01:55:26;7.30;;;3.70;;
35506;SDS011;36461;52.018;21.036;2023-02-27T01:57:56;8.50;;;3.90;;
35506;SDS011;36461;52.018;21.036;2023-02-27T02:00:25;7.50;;;4.00;;
35506;SDS011;36461;52.018;21.036;2023-02-27T02:02:56;5.80;;;3.70;;
35506;SDS011;36461;52.018;21.036;2023-02-27T02:05:31;7.50;;;3.50;;
35506;SDS011;36461;52.018;21.036;2023-02-27T02:07:59;6.60;;;3.60;;
35506;SDS011;36461;52.018;21.036;2023-02-27T02:10:29;5.70;;;3.60;;
35506;SDS011;36461;52.018;21.036;2023-02-27T02:12:58;7.30;;;3.50;;
35506;SDS011;36461;52.018;21.036;2023-02-27T02:15:30;7.80;;;4.20;;
35506;SDS011;36461;52.018;21.036;2023-02-27T02:18:09;6.20;;;3.60;;
35506;SDS011;36461;52.018;21.036;2023-02-27T02:43:38;6.80;;;3.40;;
35506;SDS011;36461;52.018;21.036;2023-02-27T02:46:24;7.70;;;3.40;;
35506;SDS011;36461;52.018;21.036;2023-02-27T02:49:27;8.10;;;3.70;;
35506;SDS011;36461;52.018;21.036;2023-02-27T02:52:05;7.60;;;3.80;;
35506;SDS011;36461;52.018;21.036;2023-02-27T02:54:44;5.70;;;3.10;;
35506;SDS011;36461;52.018;21.036;2023-02-27T02:57:30;7.30;;;3.80;;
35506;SDS011;36461;52.018;21.036;2023-02-27T03:02:43;7.80;;;4.00;;
35506;SDS011;36461;52.018;21.036;2023-02-27T03:08:21;8.70;;;4.10;;
35506;SDS011;36461;52.018;21.036;2023-02-27T03:10:57;5.30;;;3.20;;
35506;SDS011;36461;52.018;21.036;2023-02-27T03:13:32;7.50;;;3.80;;
35506;SDS011;36461;52.018;21.036;2023-02-27T03:21:48;7.80;;;3.30;;
35506;SDS011;36461;52.018;21.036;2023-02-27T03:24:22;6.90;;;3.60;;
35506;SDS011;36461;52.018;21.036;2023-02-27T03:26:59;8.30;;;4.10;;
35506;SDS011;36461;52.018;21.036;2023-02-27T03:29:35;5.80;;;3.70;;
35506;SDS011;36461;52.018;21.036;2023-02-27T03:32:13;7.10;;;4.30;;
35506;SDS011;36461;52.018;21.036;2023-02-27T03:34:45;6.30;;;4.20;;
35506;SDS011;36461;52.018;21.036;2023-02-27T03:40:25;7.60;;;4.40;;
35506;SDS011;36461;52.018;21.036;2023-02-27T03:48:34;5.90;;;4.20;;
35506;SDS011;36461;52.018;21.036;2023-02-27T03:51:03;8.10;;;5.10;;
35506;SDS011;36461;52.018;21.036;2023-02-27T03:53:32;7.00;;;4.90;;
35506;SDS011;36461;52.018;21.036;2023-02-27T03:56:04;8.00;;;5.40;;
35506;SDS011;36461;52.018;21.036;2023-02-27T03:58:35;7.90;;;5.80;;
35506;SDS011;36461;52.018;21.036;2023-02-27T04:01:03;8.30;;;5.50;;
35506;SDS011;36461;52.018;21.036;2023-02-27T04:03:33;7.70;;;5.90;;
35506;SDS011;36461;52.018;21.036;2023-02-27T04:06:08;8.90;;;5.80;;
35506;SDS011;36461;52.018;21.036;2023-02-27T04:09:06;9.50;;;5.70;;
35506;SDS011;36461;52.018;21.036;2023-02-27T04:12:05;6.20;;;4.40;;
35506;SDS011;36461;52.018;21.036;2023-02-27T04:20:30;7.50;;;5.30;;
35506;SDS011;36461;52.018;21.036;2023-02-27T04:23:18;8.20;;;5.70;;
35506;SDS011;36461;52.018;21.036;2023-02-27T04:33:53;9.40;;;6.30;;
35506;SDS011;36461;52.018;21.036;2023-02-27T04:36:52;9.00;;;6.30;;
35506;SDS011;36461;52.018;21.036;2023-02-27T04:39:30;8.70;;;6.10;;
35506;SDS011;36461;52.018;21.036;2023-02-27T04:42:04;8.80;;;6.40;;
35506;SDS011;36461;52.018;21.036;2023-02-27T04:44:37;8.30;;;6.20;;
35506;SDS011;36461;52.018;21.036;2023-02-27T04:47:08;9.10;;;6.50;;
35506;SDS011;36461;52.018;21.036;2023-02-27T04:49:41;9.50;;;5.90;;
35506;SDS011;36461;52.018;21.036;2023-02-27T04:52:16;9.50;;;6.60;;
35506;SDS011;36461;52.018;21.036;2023-02-27T04:54:50;11.60;;;6.90;;
35506;SDS011;36461;52.018;21.036;2023-02-27T04:57:24;9.80;;;7.50;;
35506;SDS011;36461;52.018;21.036;2023-02-27T04:59:56;9.70;;;6.90;;
35506;SDS011;36461;52.018;21.036;2023-02-27T05:02:30;11.00;;;7.50;;
35506;SDS011;36461;52.018;21.036;2023-02-27T05:05:04;11.10;;;8.30;;
35506;SDS011;36461;52.018;21.036;2023-02-27T05:07:41;13.30;;;8.30;;
35506;SDS011;36461;52.018;21.036;2023-02-27T05:13:03;10.30;;;7.30;;
35506;SDS011;36461;52.018;21.036;2023-02-27T05:15:39;13.10;;;7.90;;
35506;SDS011;36461;52.018;21.036;2023-02-27T05:18:19;9.50;;;6.90;;
35506;SDS011;36461;52.018;21.036;2023-02-27T05:26:17;8.90;;;6.40;;
35506;SDS011;36461;52.018;21.036;2023-02-27T05:28:57;9.30;;;7.30;;
35506;SDS011;36461;52.018;21.036;2023-02-27T05:31:42;12.60;;;8.30;;
35506;SDS011;36461;52.018;21.036;2023-02-27T05:34:20;11.40;;;7.70;;
35506;SDS011;36461;52.018;21.036;2023-02-27T05:36:56;9.20;;;7.50;;
35506;SDS011;36461;52.018;21.036;2023-02-27T05:39:31;12.00;;;7.20;;
35506;SDS011;36461;52.018;21.036;2023-02-27T05:42:05;11.30;;;7.30;;
35506;SDS011;36461;52.018;21.036;2023-02-27T05:44:40;10.50;;;7.40;;
35506;SDS011;36461;52.018;21.036;2023-02-27T05:47:17;11.10;;;7.30;;
35506;SDS011;36461;52.018;21.036;2023-02-27T05:49:51;10.70;;;7.70;;
35506;SDS011;36461;52.018;21.036;2023-02-27T05:52:23;10.10;;;7.10;;
35506;SDS011;36461;52.018;21.036;2023-02-27T05:55:05;9.50;;;6.80;;
35506;SDS011;36461;52.018;21.036;2023-02-27T05:57:47;10.00;;;7.10;;
35506;SDS011;36461;52.018;21.036;2023-02-27T06:02:53;8.20;;;6.80;;
35506;SDS011;36461;52.018;21.036;2023-02-27T06:05:23;8.90;;;6.70;;
35506;SDS011;36461;52.018;21.036;2023-02-27T06:07:52;11.80;;;8.10;;
35506;SDS011;36461;52.018;21.036;2023-02-27T06:10:20;12.50;;;8.60;;
35506;SDS011;36461;52.018;21.036;2023-02-27T06:12:49;11.20;;;6.90;;
35506;SDS011;36461;52.018;21.036;2023-02-27T06:15:16;11.50;;;7.20;;
35506;SDS011;36461;52.018;21.036;2023-02-27T06:17:46;11.50;;;7.40;;
35506;SDS011;36461;52.018;21.036;2023-02-27T06:20:14;10.20;;;6.80;;
35506;SDS011;36461;52.018;21.036;2023-02-27T06:22:42;10.30;;;5.60;;
35506;SDS011;36461;52.018;21.036;2023-02-27T06:25:10;7.60;;;5.00;;
35506;SDS011;36461;52.018;21.036;2023-02-27T06:27:39;5.80;;;4.00;;
35506;SDS011;36461;52.018;21.036;2023-02-27T06:30:07;6.90;;;4.00;;
35506;SDS011;36461;52.018;21.036;2023-02-27T06:32:35;9.40;;;4.30;;
35506;SDS011;36461;52.018;21.036;2023-02-27T06:35:04;5.80;;;3.40;;
35506;SDS011;36461;52.018;21.036;2023-02-27T06:37:33;6.30;;;3.30;;
35506;SDS011;36461;52.018;21.036;2023-02-27T06:40:01;5.70;;;3.20;;
35506;SDS011;36461;52.018;21.036;2023-02-27T06:42:32;5.60;;;3.70;;
35506;SDS011;36461;52.018;21.036;2023-02-27T06:45:00;4.90;;;3.50;;
35506;SDS011;36461;52.018;21.036;2023-02-27T06:47:28;5.20;;;3.00;;
35506;SDS011;36461;52.018;21.036;2023-02-27T06:49:56;5.50;;;3.10;;
35506;SDS011;36461;52.018;21.036;2023-02-27T06:52:24;4.90;;;2.70;;
35506;SDS011;36461;52.018;21.036;2023-02-27T06:54:53;4.60;;;3.40;;
35506;SDS011;36461;52.018;21.036;2023-02-27T06:57:21;4.60;;;3.00;;
35506;SDS011;36461;52.018;21.036;2023-02-27T06:59:49;5.20;;;2.90;;
35506;SDS011;36461;52.018;21.036;2023-02-27T07:02:17;5.60;;;3.00;;
35506;SDS011;36461;52.018;21.036;2023-02-27T07:04:45;5.40;;;2.30;;
35506;SDS011;36461;52.018;21.036;2023-02-27T07:07:13;3.10;;;2.00;;
35506;SDS011;36461;52.018;21.036;2023-02-27T07:10:02;3.60;;;2.30;;
35506;SDS011;36461;52.018;21.036;2023-02-27T07:12:32;3.30;;;1.90;;
35506;SDS011;36461;52.018;21.036;2023-02-27T07:15:00;4.70;;;2.10;;
35506;SDS011;36461;52.018;21.036;2023-02-27T07:17:28;3.80;;;1.80;;
35506;SDS011;36461;52.018;21.036;2023-02-27T07:19:56;3.70;;;1.80;;
35506;SDS011;36461;52.018;21.036;2023-02-27T07:22:24;2.50;;;1.50;;
35506;SDS011;36461;52.018;21.036;2023-02-27T07:24:52;2.40;;;1.40;;
35506;SDS011;36461;52.018;21.036;2023-02-27T07:27:20;3.40;;;1.60;;
35506;SDS011;36461;52.018;21.036;2023-02-27T07:29:48;3.10;;;1.60;;
35506;SDS011;36461;52.018;21.036;2023-02-27T07:32:16;3.60;;;1.50;;
35506;SDS011;36461;52.018;21.036;2023-02-27T07:34:44;3.60;;;1.80;;
35506;SDS011;36461;52.018;21.036;2023-02-27T07:37:12;4.70;;;1.90;;
35506;SDS011;36461;52.018;21.036;2023-02-27T07:39:40;4.30;;;1.90;;
35506;SDS011;36461;52.018;21.036;2023-02-27T07:42:08;4.10;;;2.00;;
35506;SDS011;36461;52.018;21.036;2023-02-27T07:44:39;3.40;;;1.70;;
35506;SDS011;36461;52.018;21.036;2023-02-27T07:47:07;3.40;;;2.20;;
35506;SDS011;36461;52.018;21.036;2023-02-27T07:49:35;4.60;;;2.70;;
35506;SDS011;36461;52.018;21.036;2023-02-27T07:52:03;4.50;;;2.30;;
35506;SDS011;36461;52.018;21.036;2023-02-27T07:54:31;3.00;;;2.00;;
35506;SDS011;36461;52.018;21.036;2023-02-27T07:57:03;4.10;;;1.90;;
35506;SDS011;36461;52.018;21.036;2023-02-27T07:59:31;3.40;;;2.10;;
35506;SDS011;36461;52.018;21.036;2023-02-27T08:01:59;5.60;;;2.50;;
35506;SDS011;36461;52.018;21.036;2023-02-27T08:04:27;4.30;;;1.90;;
35506;SDS011;36461;52.018;21.036;2023-02-27T08:06:56;3.40;;;1.60;;
35506;SDS011;36461;52.018;21.036;2023-02-27T08:09:24;2.40;;;1.30;;
35506;SDS011;36461;52.018;21.036;2023-02-27T08:11:52;2.50;;;1.60;;
35506;SDS011;36461;52.018;21.036;2023-02-27T08:14:20;3.10;;;1.70;;
35506;SDS011;36461;52.018;21.036;2023-02-27T08:16:48;1.50;;;1.20;;
35506;SDS011;36461;52.018;21.036;2023-02-27T08:19:16;2.30;;;1.20;;
35506;SDS011;36461;52.018;21.036;2023-02-27T08:21:44;3.40;;;1.50;;
35506;SDS011;36461;52.018;21.036;2023-02-27T08:24:12;2.80;;;1.50;;
35506;SDS011;36461;52.018;21.036;2023-02-27T08:26:40;2.90;;;1.50;;
35506;SDS011;36461;52.018;21.036;2023-02-27T08:29:08;2.90;;;1.70;;
35506;SDS011;36461;52.018;21.036;2023-02-27T08:31:36;3.80;;;1.40;;
35506;SDS011;36461;52.018;21.036;2023-02-27T08:34:04;2.60;;;1.60;;
35506;SDS011;36461;52.018;21.036;2023-02-27T08:36:37;3.50;;;1.50;;
35506;SDS011;36461;52.018;21.036;2023-02-27T08:39:06;2.70;;;1.60;;
35506;SDS011;36461;52.018;21.036;2023-02-27T08:41:35;2.60;;;1.60;;
35506;SDS011;36461;52.018;21.036;2023-02-27T08:44:03;1.80;;;1.30;;
35506;SDS011;36461;52.018;21.036;2023-02-27T08:46:32;2.70;;;1.30;;
35506;SDS011;36461;52.018;21.036;2023-02-27T08:49:00;1.70;;;1.30;;
35506;SDS011;36461;52.018;21.036;2023-02-27T08:51:28;1.90;;;1.30;;
35506;SDS011;36461;52.018;21.036;2023-02-27T08:53:56;2.10;;;1.30;;
35506;SDS011;36461;52.018;21.036;2023-02-27T08:56:25;3.40;;;1.50;;
35506;SDS011;36461;52.018;21.036;2023-02-27T08:58:55;2.60;;;1.60;;
35506;SDS011;36461;52.018;21.036;2023-02-27T09:01:23;2.00;;;1.40;;
35506;SDS011;36461;52.018;21.036;2023-02-27T09:03:55;3.10;;;1.60;;
35506;SDS011;36461;52.018;21.036;2023-02-27T09:06:24;2.90;;;1.60;;
35506;SDS011;36461;52.018;21.036;2023-02-27T09:08:53;2.70;;;1.60;;
35506;SDS011;36461;52.018;21.036;2023-02-27T09:11:21;2.60;;;2.00;;
35506;SDS011;36461;52.018;21.036;2023-02-27T09:13:50;2.70;;;1.70;;
35506;SDS011;36461;52.018;21.036;2023-02-27T09:16:19;2.80;;;1.70;;
35506;SDS011;36461;52.018;21.036;2023-02-27T09:18:49;3.40;;;1.70;;
35506;SDS011;36461;52.018;21.036;2023-02-27T09:21:17;4.00;;;1.50;;
35506;SDS011;36461;52.018;21.036;2023-02-27T09:23:45;2.40;;;1.40;;
35506;SDS011;36461;52.018;21.036;2023-02-27T09:26:14;2.60;;;1.30;;
35506;SDS011;36461;52.018;21.036;2023-02-27T09:28:43;2.10;;;1.40;;
35506;SDS011;36461;52.018;21.036;2023-02-27T09:31:11;2.10;;;1.20;;
35506;SDS011;36461;52.018;21.036;2023-02-27T09:33:40;2.90;;;1.50;;
35506;SDS011;36461;52.018;21.036;2023-02-27T09:36:08;2.20;;;1.40;;
35506;SDS011;36461;52.018;21.036;2023-02-27T09:38:36;2.00;;;1.20;;
35506;SDS011;36461;52.018;21.036;2023-02-27T09:41:19;3.20;;;1.70;;
35506;SDS011;36461;52.018;21.036;2023-02-27T09:43:59;2.20;;;1.40;;
35506;SDS011;36461;52.018;21.036;2023-02-27T09:46:28;3.40;;;1.70;;
35506;SDS011;36461;52.018;21.036;2023-02-27T09:48:57;2.60;;;1.50;;
35506;SDS011;36461;52.018;21.036;2023-02-27T09:51:27;4.90;;;1.50;;
35506;SDS011;36461;52.018;21.036;2023-02-27T09:53:57;2.90;;;1.40;;
35506;SDS011;36461;52.018;21.036;2023-02-27T09:56:29;2.70;;;1.10;;
35506;SDS011;36461;52.018;21.036;2023-02-27T10:04:46;2.00;;;1.30;;
35506;SDS011;36461;52.018;21.036;2023-02-27T10:07:39;2.50;;;1.40;;
35506;SDS011;36461;52.018;21.036;2023-02-27T10:16:08;3.70;;;1.70;;
35506;SDS011;36461;52.018;21.036;2023-02-27T10:18:47;2.80;;;1.40;;
35506;SDS011;36461;52.018;21.036;2023-02-27T10:21:56;3.00;;;1.40;;
35506;SDS011;36461;52.018;21.036;2023-02-27T10:26:49;2.10;;;1.50;;
35506;SDS011;36461;52.018;21.036;2023-02-27T10:32:11;3.30;;;1.60;;
35506;SDS011;36461;52.018;21.036;2023-02-27T10:34:53;3.30;;;1.70;;
35506;SDS011;36461;52.018;21.036;2023-02-27T10:37:33;3.10;;;1.60;;
35506;SDS011;36461;52.018;21.036;2023-02-27T10:40:04;15.90;;;9.30;;
35506;SDS011;36461;52.018;21.036;2023-02-27T10:42:36;5.90;;;2.50;;
35506;SDS011;36461;52.018;21.036;2023-02-27T10:45:12;2.90;;;1.90;;
35506;SDS011;36461;52.018;21.036;2023-02-27T10:47:42;4.40;;;1.80;;
35506;SDS011;36461;52.018;21.036;2023-02-27T10:52:50;3.40;;;1.60;;
35506;SDS011;36461;52.018;21.036;2023-02-27T10:55:30;2.40;;;1.70;;
35506;SDS011;36461;52.018;21.036;2023-02-27T10:58:01;4.60;;;1.90;;
35506;SDS011;36461;52.018;21.036;2023-02-27T11:03:21;2.00;;;1.40;;
35506;SDS011;36461;52.018;21.036;2023-02-27T11:05:54;3.20;;;1.80;;
35506;SDS011;36461;52.018;21.036;2023-02-27T11:08:25;3.40;;;1.70;;
35506;SDS011;36461;52.018;21.036;2023-02-27T11:10:56;5.00;;;1.90;;
35506;SDS011;36461;52.018;21.036;2023-02-27T11:13:39;4.10;;;1.80;;
35506;SDS011;36461;52.018;21.036;2023-02-27T11:16:13;3.10;;;1.60;;
35506;SDS011;36461;52.018;21.036;2023-02-27T11:18:44;3.90;;;2.20;;
35506;SDS011;36461;52.018;21.036;2023-02-27T11:23:54;2.40;;;1.40;;
35506;SDS011;36461;52.018;21.036;2023-02-27T11:26:30;3.30;;;1.80;;
35506;SDS011;36461;52.018;21.036;2023-02-27T11:29:05;4.10;;;1.80;;
35506;SDS011;36461;52.018;21.036;2023-02-27T11:31:50;2.10;;;1.40;;
35506;SDS011;36461;52.018;21.036;2023-02-27T11:34:22;3.90;;;1.80;;
35506;SDS011;36461;52.018;21.036;2023-02-27T11:36:54;3.20;;;2.00;;
35506;SDS011;36461;52.018;21.036;2023-02-27T11:42:25;3.70;;;1.70;;
35506;SDS011;36461;52.018;21.036;2023-02-27T11:45:19;2.00;;;1.40;;
35506;SDS011;36461;52.018;21.036;2023-02-27T11:48:34;3.50;;;2.00;;
35506;SDS011;36461;52.018;21.036;2023-02-27T11:53:51;3.20;;;2.00;;
35506;SDS011;36461;52.018;21.036;2023-02-27T12:02:28;3.00;;;1.80;;
35506;SDS011;36461;52.018;21.036;2023-02-27T12:07:57;3.50;;;2.10;;
35506;SDS011;36461;52.018;21.036;2023-02-27T12:13:39;3.00;;;2.00;;
35506;SDS011;36461;52.018;21.036;2023-02-27T12:16:18;3.50;;;2.10;;
35506;SDS011;36461;52.018;21.036;2023-02-27T12:21:41;5.90;;;2.70;;
35506;SDS011;36461;52.018;21.036;2023-02-27T12:26:51;5.20;;;2.20;;
35506;SDS011;36461;52.018;21.036;2023-02-27T12:29:30;4.70;;;2.60;;
35506;SDS011;36461;52.018;21.036;2023-02-27T12:34:53;3.60;;;1.90;;
35506;SDS011;36461;52.018;21.036;2023-02-27T12:37:28;2.90;;;1.90;;
35506;SDS011;36461;52.018;21.036;2023-02-27T12:40:00;4.50;;;2.80;;
35506;SDS011;36461;52.018;21.036;2023-02-27T12:51:37;3.30;;;1.90;;
35506;SDS011;36461;52.018;21.036;2023-02-27T12:54:18;2.50;;;1.70;;
35506;SDS011;36461;52.018;21.036;2023-02-27T12:57:01;3.60;;;1.80;;
35506;SDS011;36461;52.018;21.036;2023-02-27T13:11:04;4.70;;;2.20;;
35506;SDS011;36461;52.018;21.036;2023-02-27T13:13:46;3.40;;;2.00;;
35506;SDS011;36461;52.018;21.036;2023-02-27T13:18:48;3.40;;;1.90;;
35506;SDS011;36461;52.018;21.036;2023-02-27T13:21:38;3.30;;;2.30;;
35506;SDS011;36461;52.018;21.036;2023-02-27T13:24:31;4.40;;;2.40;;
35506;SDS011;36461;52.018;21.036;2023-02-27T13:27:02;4.00;;;2.50;;
35506;SDS011;36461;52.018;21.036;2023-02-27T13:29:38;5.10;;;2.40;;
35506;SDS011;36461;52.018;21.036;2023-02-27T13:34:44;3.50;;;2.10;;
35506;SDS011;36461;52.018;21.036;2023-02-27T13:37:20;2.40;;;2.10;;
35506;SDS011;36461;52.018;21.036;2023-02-27T13:39:52;3.10;;;2.10;;
35506;SDS011;36461;52.018;21.036;2023-02-27T13:44:55;3.90;;;2.30;;
35506;SDS011;36461;52.018;21.036;2023-02-27T13:47:48;4.30;;;2.40;;
35506;SDS011;36461;52.018;21.036;2023-02-27T13:52:44;5.00;;;2.70;;
35506;SDS011;36461;52.018;21.036;2023-02-27T13:55:30;5.20;;;2.50;;
35506;SDS011;36461;52.018;21.036;2023-02-27T13:58:02;3.50;;;2.40;;
35506;SDS011;36461;52.018;21.036;2023-02-27T14:00:33;3.60;;;2.60;;
35506;SDS011;36461;52.018;21.036;2023-02-27T14:03:05;4.50;;;2.40;;
35506;SDS011;36461;52.018;21.036;2023-02-27T14:05:45;4.70;;;2.50;;
35506;SDS011;36461;52.018;21.036;2023-02-27T14:08:29;4.70;;;2.50;;
35506;SDS011;36461;52.018;21.036;2023-02-27T14:11:27;5.00;;;2.90;;
35506;SDS011;36461;52.018;21.036;2023-02-27T14:14:07;6.10;;;3.30;;
35506;SDS011;36461;52.018;21.036;2023-02-27T14:16:56;5.30;;;3.40;;
35506;SDS011;36461;52.018;21.036;2023-02-27T14:19:26;4.70;;;2.90;;
35506;SDS011;36461;52.018;21.036;2023-02-27T14:22:20;4.10;;;2.50;;
35506;SDS011;36461;52.018;21.036;2023-02-27T14:25:16;9.80;;;4.70;;
35506;SDS011;36461;52.018;21.036;2023-02-27T14:27:50;3.70;;;2.80;;
35506;SDS011;36461;52.018;21.036;2023-02-27T14:30:31;4.90;;;2.60;;
35506;SDS011;36461;52.018;21.036;2023-02-27T14:33:51;4.80;;;3.00;;
35506;SDS011;36461;52.018;21.036;2023-02-27T14:36:08;3.80;;;2.60;;
35506;SDS011;36461;52.018;21.036;2023-02-27T14:38:45;5.20;;;2.40;;
35506;SDS011;36461;52.018;21.036;2023-02-27T14:44:19;5.90;;;2.90;;
35506;SDS011;36461;52.018;21.036;2023-02-27T14:46:49;5.80;;;3.10;;
35506;SDS011;36461;52.018;21.036;2023-02-27T14:49:25;6.90;;;3.80;;
35506;SDS011;36461;52.018;21.036;2023-02-27T14:51:55;6.10;;;4.00;;
35506;SDS011;36461;52.018;21.036;2023-02-27T14:54:24;5.80;;;3.50;;
35506;SDS011;36461;52.018;21.036;2023-02-27T14:57:04;5.90;;;3.30;;
35506;SDS011;36461;52.018;21.036;2023-02-27T14:59:40;6.10;;;2.80;;
35506;SDS011;36461;52.018;21.036;2023-02-27T15:05:34;4.40;;;2.60;;
35506;SDS011;36461;52.018;21.036;2023-02-27T15:07:51;5.50;;;2.90;;
35506;SDS011;36461;52.018;21.036;2023-02-27T15:10:25;6.20;;;3.30;;
35506;SDS011;36461;52.018;21.036;2023-02-27T15:13:00;6.10;;;3.20;;
35506;SDS011;36461;52.018;21.036;2023-02-27T15:15:29;7.60;;;3.40;;
35506;SDS011;36461;52.018;21.036;2023-02-27T15:17:58;6.10;;;3.00;;
35506;SDS011;36461;52.018;21.036;2023-02-27T15:20:31;5.10;;;2.90;;
35506;SDS011;36461;52.018;21.036;2023-02-27T15:23:21;5.10;;;2.60;;
35506;SDS011;36461;52.018;21.036;2023-02-27T15:25:56;5.10;;;2.80;;
35506;SDS011;36461;52.018;21.036;2023-02-27T15:28:26;6.60;;;3.60;;
35506;SDS011;36461;52.018;21.036;2023-02-27T15:30:58;6.70;;;3.50;;
35506;SDS011;36461;52.018;21.036;2023-02-27T15:33:27;6.50;;;3.20;;
35506;SDS011;36461;52.018;21.036;2023-02-27T15:35:58;4.60;;;3.10;;
35506;SDS011;36461;52.018;21.036;2023-02-27T15:38:29;7.30;;;3.10;;
35506;SDS011;36461;52.018;21.036;2023-02-27T15:40:57;4.90;;;3.10;;
35506;SDS011;36461;52.018;21.036;2023-02-27T15:43:27;5.80;;;4.20;;
35506;SDS011;36461;52.018;21.036;2023-02-27T15:45:56;5.40;;;3.10;;
35506;SDS011;36461;52.018;21.036;2023-02-27T15:48:25;6.10;;;3.40;;
35506;SDS011;36461;52.018;21.036;2023-02-27T15:50:57;8.20;;;4.40;;
35506;SDS011;36461;52.018;21.036;2023-02-27T15:53:28;6.00;;;3.50;;
35506;SDS011;36461;52.018;21.036;2023-02-27T15:55:58;4.50;;;2.80;;
35506;SDS011;36461;52.018;21.036;2023-02-27T15:58:32;9.60;;;4.40;;
35506;SDS011;36461;52.018;21.036;2023-02-27T16:01:13;6.90;;;3.80;;
35506;SDS011;36461;52.018;21.036;2023-02-27T16:03:47;5.90;;;3.30;;
35506;SDS011;36461;52.018;21.036;2023-02-27T16:06:18;6.40;;;3.50;;
35506;SDS011;36461;52.018;21.036;2023-02-27T16:08:50;5.50;;;3.60;;
35506;SDS011;36461;52.018;21.036;2023-02-27T16:13:52;6.40;;;3.50;;
35506;SDS011;36461;52.018;21.036;2023-02-27T16:19:23;9.00;;;4.60;;
35506;SDS011;36461;52.018;21.036;2023-02-27T16:22:15;12.00;;;4.30;;
35506;SDS011;36461;52.018;21.036;2023-02-27T16:24:46;8.70;;;3.70;;
35506;SDS011;36461;52.018;21.036;2023-02-27T16:27:15;7.90;;;4.50;;
35506;SDS011;36461;52.018;21.036;2023-02-27T16:29:56;6.10;;;4.00;;
35506;SDS011;36461;52.018;21.036;2023-02-27T16:32:32;6.50;;;3.90;;
35506;SDS011;36461;52.018;21.036;2023-02-27T16:35:06;7.20;;;4.10;;
35506;SDS011;36461;52.018;21.036;2023-02-27T16:37:43;6.70;;;3.80;;
35506;SDS011;36461;52.018;21.036;2023-02-27T16:40:17;5.90;;;3.40;;
35506;SDS011;36461;52.018;21.036;2023-02-27T16:42:50;6.50;;;3.90;;
35506;SDS011;36461;52.018;21.036;2023-02-27T16:45:20;8.00;;;4.30;;
35506;SDS011;36461;52.018;21.036;2023-02-27T16:47:50;9.80;;;5.70;;
35506;SDS011;36461;52.018;21.036;2023-02-27T16:50:22;11.40;;;6.40;;
35506;SDS011;36461;52.018;21.036;2023-02-27T16:52:57;11.50;;;6.20;;
35506;SDS011;36461;52.018;21.036;2023-02-27T16:55:25;46.00;;;27.60;;
35506;SDS011;36461;52.018;21.036;2023-02-27T16:57:57;34.10;;;19.00;;
35506;SDS011;36461;52.018;21.036;2023-02-27T17:00:25;63.70;;;32.00;;
35506;SDS011;36461;52.018;21.036;2023-02-27T17:02:53;24.60;;;15.10;;
35506;SDS011;36461;52.018;21.036;2023-02-27T17:05:21;17.20;;;12.00;;
35506;SDS011;36461;52.018;21.036;2023-02-27T17:07:50;10.80;;;6.90;;
35506;SDS011;36461;52.018;21.036;2023-02-27T17:10:20;12.50;;;7.90;;
35506;SDS011;36461;52.018;21.036;2023-02-27T17:12:51;12.00;;;6.70;;
35506;SDS011;36461;52.018;21.036;2023-02-27T17:15:20;10.90;;;6.00;;
35506;SDS011;36461;52.018;21.036;2023-02-27T17:17:48;8.00;;;5.40;;
35506;SDS011;36461;52.018;21.036;2023-02-27T17:20:16;7.60;;;5.60;;
35506;SDS011;36461;52.018;21.036;2023-02-27T17:22:44;11.10;;;5.80;;
35506;SDS011;36461;52.018;21.036;2023-02-27T17:25:12;9.70;;;6.30;;
35506;SDS011;36461;52.018;21.036;2023-02-27T17:27:41;12.10;;;7.10;;
35506;SDS011;36461;52.018;21.036;2023-02-27T17:30:11;25.20;;;12.20;;
35506;SDS011;36461;52.018;21.036;2023-02-27T17:32:41;23.50;;;13.40;;
35506;SDS011;36461;52.018;21.036;2023-02-27T17:35:09;14.10;;;8.80;;
35506;SDS011;36461;52.018;21.036;2023-02-27T17:37:37;17.30;;;8.60;;
35506;SDS011;36461;52.018;21.036;2023-02-27T17:40:06;15.20;;;8.60;;
35506;SDS011;36461;52.018;21.036;2023-02-27T17:42:35;10.60;;;7.20;;
35506;SDS011;36461;52.018;21.036;2023-02-27T17:45:04;12.40;;;7.30;;
35506;SDS011;36461;52.018;21.036;2023-02-27T17:47:34;32.80;;;12.20;;